createdAt,value
2019-06-10T00:00:31.257Z,2.40
2019-06-10T00:03:00.359Z,2.50
2019-06-10T00:05:30.486Z,2.50
2019-06-10T00:08:01.135Z,2.47
2019-06-10T00:10:28.303Z,2.60
2019-06-10T00:12:57.288Z,2.50
2019-06-10T00:15:25.379Z,2.43
2019-06-10T00:18:16.279Z,2.77
2019-06-10T00:20:23.157Z,2.57
2019-06-10T00:22:51.522Z,2.60
2019-06-10T00:25:20.997Z,2.87
2019-06-10T00:27:51.070Z,2.67
2019-06-10T00:30:20.723Z,3.37
2019-06-10T00:32:48.312Z,3.07
2019-06-10T00:35:16.295Z,2.80
2019-06-10T00:37:44.292Z,2.77
2019-06-10T00:40:14.041Z,2.60
2019-06-10T00:42:42.171Z,2.60
2019-06-10T00:45:17.527Z,2.37
2019-06-10T00:47:41.444Z,2.67
2019-06-10T00:50:13.083Z,2.40
2019-06-10T00:52:42.163Z,2.60
2019-06-10T00:55:10.020Z,2.57
2019-06-10T00:57:38.458Z,2.57
2019-06-10T01:00:14.521Z,2.70
2019-06-10T01:02:36.677Z,2.30
2019-06-10T01:05:05.128Z,2.40
2019-06-10T01:07:33.206Z,2.90
2019-06-10T01:10:01.500Z,2.60
2019-06-10T01:12:31.627Z,2.67
2019-06-10T01:15:00.888Z,2.50
2019-06-10T01:17:31.108Z,2.87
2019-06-10T01:20:01.343Z,2.40
2019-06-10T01:22:28.491Z,2.50
2019-06-10T01:24:56.456Z,2.50
2019-06-10T01:27:24.373Z,2.80
2019-06-10T01:29:52.262Z,2.40
2019-06-10T01:32:21.793Z,2.70
2019-06-10T01:34:50.878Z,2.37
2019-06-10T01:37:21.569Z,2.40
2019-06-10T01:39:48.653Z,2.30
2019-06-10T01:42:17.182Z,2.20
2019-06-10T01:44:45.345Z,2.40
2019-06-10T01:47:14.651Z,2.20
2019-06-10T01:49:43.013Z,2.80
2019-06-10T01:52:12.432Z,2.30
2019-06-10T01:54:42.013Z,2.60
2019-06-10T01:57:11.929Z,2.37
2019-06-10T01:59:41.335Z,2.57
2019-06-10T02:02:17.756Z,2.30
2019-06-10T02:04:46.084Z,2.17
2019-06-10T02:07:16.729Z,2.60
2019-06-10T02:09:43.675Z,2.33
2019-06-10T02:12:12.761Z,2.47
2019-06-10T02:14:41.617Z,2.00
2019-06-10T02:17:12.522Z,2.40
2019-06-10T02:19:41.446Z,2.20
2019-06-10T02:22:10.753Z,2.70
2019-06-10T02:24:39.008Z,2.17
2019-06-10T02:27:06.947Z,2.13
2019-06-10T02:29:34.852Z,2.30
2019-06-10T02:32:04.744Z,2.37
2019-06-10T02:34:36.637Z,2.60
2019-06-10T02:37:04.635Z,2.50
2019-06-10T02:39:34.993Z,1.93
2019-06-10T02:42:06.746Z,2.00
2019-06-10T02:44:37.554Z,2.17
2019-06-10T02:47:04.451Z,2.10
2019-06-10T02:49:50.574Z,2.27
2019-06-10T02:52:04.256Z,2.20
2019-06-10T02:54:35.834Z,2.53
2019-06-10T02:57:04.394Z,2.03
2019-06-10T02:59:35.504Z,2.33
2019-06-10T03:02:03.033Z,2.10
2019-06-10T03:04:34.003Z,2.17
2019-06-10T03:07:03.221Z,2.00
2019-06-10T03:09:32.021Z,2.13
2019-06-10T03:11:59.637Z,2.10
2019-06-10T03:14:29.059Z,2.20
2019-06-10T03:16:59.810Z,2.20
2019-06-10T03:19:42.303Z,2.30
2019-06-10T03:21:57.733Z,2.57
2019-06-10T03:24:25.796Z,2.27
2019-06-10T03:26:53.743Z,2.53
2019-06-10T03:29:24.639Z,2.30
2019-06-10T03:31:55.238Z,2.40
2019-06-10T03:34:29.998Z,2.10
2019-06-10T03:36:52.966Z,2.13
2019-06-10T03:39:21.386Z,2.23
2019-06-10T03:41:50.039Z,2.20
2019-06-10T03:44:18.923Z,2.17
2019-06-10T03:46:46.859Z,2.40
2019-06-10T03:49:14.849Z,2.23
2019-06-10T03:51:43.054Z,2.40
2019-06-10T03:54:13.072Z,2.40
2019-06-10T03:56:42.953Z,2.20
2019-06-10T03:59:12.284Z,2.63
2019-06-10T04:01:42.292Z,2.40
2019-06-10T04:04:09.979Z,2.10
2019-06-10T04:06:38.076Z,2.40
2019-06-10T04:09:06.409Z,2.00
2019-06-10T04:11:35.446Z,2.20
2019-06-10T04:14:03.947Z,2.30
2019-06-10T04:16:32.806Z,2.70
2019-06-10T04:19:02.511Z,2.40
2019-06-10T04:21:32.682Z,2.07
2019-06-10T04:24:07.659Z,2.57
2019-06-10T04:26:35.650Z,2.37
2019-06-10T04:29:03.705Z,2.20
2019-06-10T04:31:33.238Z,1.97
2019-06-10T04:34:03.181Z,2.40
2019-06-10T04:36:33.068Z,2.20
2019-06-10T04:39:02.998Z,1.97
2019-06-10T04:41:32.299Z,2.67
2019-06-10T04:43:59.763Z,2.07
2019-06-10T04:46:28.357Z,2.00
2019-06-10T04:48:57.334Z,2.30
2019-06-10T04:51:26.624Z,2.10
2019-06-10T04:53:54.953Z,1.97
2019-06-10T04:56:24.565Z,2.30
2019-06-10T04:58:52.715Z,1.97
2019-06-10T05:01:21.647Z,2.00
2019-06-10T05:03:52.453Z,1.90
2019-06-10T05:06:21.738Z,2.27
2019-06-10T05:08:50.185Z,2.33
2019-06-10T05:11:19.081Z,2.17
2019-06-10T05:13:47.069Z,2.00
2019-06-10T05:16:15.042Z,2.10
2019-06-10T05:18:43.035Z,2.07
2019-06-10T05:21:13.157Z,2.80
2019-06-10T05:23:42.771Z,2.47
2019-06-10T05:26:10.339Z,2.03
2019-06-10T05:28:38.239Z,2.40
2019-06-10T05:31:06.152Z,2.20
2019-06-10T05:33:34.172Z,2.27
2019-06-10T05:36:02.458Z,2.10
2019-06-10T05:38:34.923Z,2.13
2019-06-10T05:41:03.320Z,2.27
2019-06-10T05:43:34.347Z,1.97
2019-06-10T05:46:02.921Z,2.47
2019-06-10T05:48:33.040Z,2.17
2019-06-10T05:51:06.239Z,2.50
2019-06-10T05:53:31.525Z,2.30
2019-06-10T05:56:02.041Z,2.40
2019-06-10T05:58:47.530Z,1.93
2019-06-10T06:01:15.505Z,1.90
2019-06-10T06:03:44.101Z,2.20
2019-06-10T06:06:12.640Z,2.03
2019-06-10T06:08:42.777Z,2.17
2019-06-10T06:11:12.738Z,2.00
2019-06-10T06:13:40.072Z,2.30
2019-06-10T06:16:08.005Z,1.70
2019-06-10T06:18:36.464Z,1.87
2019-06-10T06:21:20.924Z,2.17
2019-06-10T06:23:37.882Z,2.00
2019-06-10T06:26:05.954Z,2.37
2019-06-10T06:28:38.183Z,1.90
2019-06-10T06:31:06.226Z,1.90
2019-06-10T06:33:37.693Z,2.00
2019-06-10T06:36:03.805Z,2.10
2019-06-10T06:38:34.050Z,1.90
2019-06-10T06:41:03.186Z,1.77
2019-06-10T06:43:36.423Z,2.00
2019-06-10T06:46:02.454Z,2.00
2019-06-10T06:48:33.595Z,1.87
2019-06-10T06:51:07.405Z,1.80
2019-06-10T06:53:39.541Z,1.90
2019-06-10T06:55:59.708Z,2.00
2019-06-10T06:58:27.696Z,2.10
2019-06-10T07:01:07.413Z,1.80
2019-06-10T07:03:25.312Z,1.87
2019-06-10T07:05:53.743Z,1.67
2019-06-10T07:08:22.823Z,1.70
2019-06-10T07:10:52.272Z,1.93
2019-06-10T07:13:22.201Z,1.70
2019-06-10T07:15:49.944Z,1.63
2019-06-10T07:18:17.944Z,1.83
2019-06-10T07:20:46.071Z,1.77
2019-06-10T07:23:14.156Z,1.80
2019-06-10T07:25:46.556Z,1.73
2019-06-10T07:28:12.549Z,1.80
2019-06-10T07:30:47.183Z,1.83
2019-06-10T07:33:12.171Z,1.80
2019-06-10T07:35:41.611Z,1.60
2019-06-10T07:38:12.109Z,1.70
2019-06-10T07:40:39.464Z,1.60
2019-06-10T07:43:07.401Z,1.70
2019-06-10T07:45:38.987Z,1.57
2019-06-10T07:48:05.479Z,1.67
2019-06-10T07:50:34.984Z,1.90
2019-06-10T07:53:03.145Z,1.50
2019-06-10T07:55:33.262Z,1.60
2019-06-10T07:58:02.523Z,2.00
2019-06-10T08:00:30.401Z,2.00
2019-06-10T08:02:58.459Z,1.83
2019-06-10T08:05:26.433Z,1.50
2019-06-10T08:07:55.005Z,1.57
2019-06-10T08:10:23.312Z,1.50
2019-06-10T08:12:52.436Z,1.50
2019-06-10T08:15:22.887Z,1.83
2019-06-10T08:17:50.682Z,1.40
2019-06-10T08:20:39.094Z,1.50
2019-06-10T08:23:07.160Z,1.80
2019-06-10T08:25:36.704Z,1.80
2019-06-10T08:28:04.956Z,1.57
2019-06-10T08:30:33.070Z,1.63
2019-06-10T08:33:03.374Z,1.80
2019-06-10T08:35:41.445Z,1.63
2019-06-10T08:38:02.342Z,1.67
2019-06-10T08:40:32.418Z,1.60
2019-06-10T08:42:59.615Z,1.80
2019-06-10T08:45:27.614Z,1.60
2019-06-10T08:47:55.623Z,1.60
2019-06-10T08:50:24.804Z,1.50
2019-06-10T08:53:09.035Z,2.00
2019-06-10T08:55:22.931Z,1.43
2019-06-10T08:57:53.373Z,1.90
2019-06-10T09:00:25.472Z,1.63
2019-06-10T09:02:53.909Z,1.50
2019-06-10T09:05:23.229Z,1.50
2019-06-10T09:07:54.317Z,1.60
2019-06-10T09:10:22.717Z,1.40
2019-06-10T09:12:54.173Z,1.40
2019-06-10T09:15:20.728Z,1.50
2019-06-10T09:17:55.258Z,1.40
2019-06-10T09:20:22.794Z,1.40
2019-06-10T09:23:10.882Z,1.47
2019-06-10T09:25:22.398Z,1.20
2019-06-10T09:27:51.800Z,1.40
2019-06-10T09:30:19.556Z,1.17
2019-06-10T09:32:51.126Z,1.40
2019-06-10T09:35:17.479Z,1.73
2019-06-10T09:37:48.442Z,1.67
2019-06-10T09:40:15.377Z,1.30
2019-06-10T09:42:47.838Z,1.30
2019-06-10T09:45:13.839Z,1.53
2019-06-10T09:47:45.642Z,1.43
2019-06-10T09:50:12.338Z,1.80
2019-06-10T09:52:41.580Z,1.77
2019-06-10T09:55:12.873Z,1.60
2019-06-10T09:57:43.716Z,1.40
2019-06-10T10:00:12.463Z,1.33
2019-06-10T10:02:44.927Z,1.30
2019-06-10T10:05:10.772Z,1.40
2019-06-10T10:07:38.809Z,1.50
2019-06-10T10:10:07.236Z,1.40
2019-06-10T10:12:35.235Z,1.40
2019-06-10T10:15:22.043Z,1.47
2019-06-10T10:17:33.362Z,1.50
2019-06-10T10:20:03.218Z,1.13
2019-06-10T10:22:33.329Z,1.40
2019-06-10T10:25:03.031Z,1.20
2019-06-10T10:27:32.318Z,1.10
2019-06-10T10:30:00.181Z,1.30
2019-06-10T10:32:28.143Z,1.10
2019-06-10T10:34:56.605Z,1.50
2019-06-10T10:37:24.607Z,1.23
2019-06-10T10:39:54.482Z,1.50
2019-06-10T10:42:23.633Z,1.40
2019-06-10T10:44:57.479Z,1.30
2019-06-10T10:47:25.148Z,1.60
2019-06-10T10:49:55.254Z,1.50
2019-06-10T10:52:22.448Z,1.40
2019-06-10T10:54:51.854Z,1.47
2019-06-10T10:57:22.588Z,1.20
2019-06-10T10:59:52.461Z,1.50
2019-06-10T11:02:19.534Z,1.40
2019-06-10T11:04:47.982Z,1.50
2019-06-10T11:07:16.185Z,1.50
2019-06-10T11:09:44.870Z,1.40
2019-06-10T11:12:13.868Z,2.07
2019-06-10T11:14:42.508Z,2.80
2019-06-10T11:17:10.515Z,1.40
2019-06-10T11:19:38.483Z,1.60
2019-06-10T11:22:06.462Z,1.43
2019-06-10T11:24:40.786Z,1.40
2019-06-10T11:27:04.165Z,1.42
2019-06-10T11:29:32.951Z,1.70
2019-06-10T11:32:03.021Z,1.40
2019-06-10T11:34:33.029Z,1.35
2019-06-10T11:37:02.330Z,1.55
2019-06-10T11:39:30.043Z,1.42
2019-06-10T11:41:57.944Z,1.25
2019-06-10T11:44:25.927Z,1.50
2019-06-10T11:46:57.483Z,1.60
2019-06-10T11:49:23.863Z,1.50
2019-06-10T11:51:53.646Z,1.75
2019-06-10T11:54:23.425Z,1.40
2019-06-10T11:56:54.598Z,1.60
2019-06-10T11:59:21.052Z,1.70
2019-06-10T12:01:50.275Z,1.60
2019-06-10T12:04:18.591Z,1.60
2019-06-10T12:06:46.558Z,1.70
2019-06-10T12:09:14.467Z,1.60
2019-06-10T12:11:43.821Z,1.40
2019-06-10T12:14:12.849Z,2.10
2019-06-10T12:19:12.730Z,1.73
2019-06-10T12:21:40.381Z,1.90
2019-06-10T12:24:08.352Z,1.60
2019-06-10T12:26:36.323Z,1.53
2019-06-10T12:29:05.737Z,1.80
2019-06-10T12:31:34.682Z,1.50
2019-06-10T12:34:05.732Z,1.57
2019-06-10T12:36:32.881Z,1.93
2019-06-10T12:39:07.376Z,1.57
2019-06-10T12:41:30.479Z,1.60
2019-06-10T12:43:58.444Z,1.60
2019-06-10T12:46:26.347Z,1.50
2019-06-10T12:48:58.176Z,1.60
2019-06-10T12:51:24.044Z,1.60
2019-06-10T12:53:53.168Z,1.47
2019-06-10T12:56:22.828Z,1.40
2019-06-10T12:58:54.109Z,1.70
2019-06-10T13:01:20.581Z,1.80
2019-06-10T13:03:48.570Z,1.43
2019-06-10T13:06:17.989Z,1.40
2019-06-10T13:08:47.565Z,1.50
2019-06-10T13:11:15.567Z,1.67
2019-06-10T13:13:43.609Z,1.60
2019-06-10T13:16:14.220Z,1.60
2019-06-10T13:18:41.279Z,1.83
2019-06-10T13:21:13.687Z,1.57
2019-06-10T13:23:38.979Z,1.77
2019-06-10T13:26:10.779Z,1.73
2019-06-10T13:28:36.567Z,1.70
2019-06-10T13:31:07.861Z,1.80
2019-06-10T13:33:34.655Z,2.00
2019-06-10T13:36:06.400Z,2.20
2019-06-10T13:38:33.210Z,1.70
2019-06-10T13:41:02.536Z,2.03
2019-06-10T13:43:33.882Z,1.60
2019-06-10T13:46:03.154Z,1.70
2019-06-10T13:48:32.093Z,1.70
2019-06-10T13:51:01.463Z,1.90
2019-06-10T13:53:33.002Z,2.00
2019-06-10T13:56:19.065Z,2.27
2019-06-10T13:58:31.792Z,2.30
2019-06-10T14:00:59.908Z,1.80
2019-06-10T14:03:27.879Z,1.90
2019-06-10T14:05:58.553Z,1.90
2019-06-10T14:08:25.473Z,1.70
2019-06-10T14:10:54.244Z,2.00
2019-06-10T14:13:23.747Z,1.60
2019-06-10T14:15:53.397Z,1.70
2019-06-10T16:07:42.608Z,1.40
2019-06-10T16:10:10.607Z,1.50
2019-06-10T16:12:38.606Z,1.60
2019-06-10T16:15:06.713Z,1.70
2019-06-10T16:17:34.662Z,1.60
2019-06-10T16:20:03.779Z,1.50
2019-06-10T16:22:32.133Z,1.50
2019-06-10T16:25:00.211Z,1.83
2019-06-10T16:27:43.502Z,1.60
2019-06-10T16:29:57.827Z,1.70
2019-06-10T16:32:26.490Z,1.87
2019-06-10T16:34:54.627Z,1.63
2019-06-10T16:37:25.328Z,1.80
2019-06-10T16:39:52.544Z,1.90
2019-06-10T16:42:22.964Z,1.70
2019-06-10T16:44:52.681Z,1.37
2019-06-10T16:47:21.062Z,1.60
2019-06-10T16:49:52.150Z,1.40
2019-06-10T16:52:19.547Z,1.67
2019-06-10T16:54:47.451Z,1.67
2019-06-10T16:57:15.490Z,1.43
2019-06-10T16:59:43.496Z,1.60
2019-06-10T17:02:12.761Z,1.50
2019-06-10T17:04:43.533Z,1.67
2019-06-10T17:07:12.581Z,1.70
2019-06-10T17:09:42.153Z,1.50
2019-06-10T17:12:12.219Z,1.47
2019-06-10T17:14:39.603Z,1.30
2019-06-10T17:17:07.572Z,1.40
2019-06-10T17:19:35.547Z,1.50
2019-06-10T17:22:03.447Z,1.80
2019-06-10T17:24:33.648Z,1.50
2019-06-10T17:27:02.639Z,1.50
2019-06-10T17:29:33.223Z,1.70
2019-06-10T17:32:02.616Z,1.67
2019-06-10T17:34:31.412Z,1.60
2019-06-10T17:36:59.663Z,1.43
2019-06-10T17:39:29.928Z,1.90
2019-06-10T17:41:58.464Z,2.67
2019-06-10T17:44:29.088Z,1.70
2019-06-10T17:47:03.886Z,1.80
2019-06-10T17:49:34.407Z,1.90
2019-06-10T17:52:02.577Z,1.60
2019-06-10T17:54:30.944Z,1.60
2019-06-10T17:56:58.924Z,1.33
2019-06-10T17:59:26.943Z,1.60
2019-06-10T18:01:54.898Z,1.60
2019-06-10T18:04:27.247Z,2.67
2019-06-10T18:07:13.623Z,2.07
2019-06-10T18:09:41.557Z,1.57
2019-06-10T18:12:09.435Z,1.80
2019-06-10T18:14:37.472Z,1.50
2019-06-10T18:17:05.516Z,1.60
2019-06-10T18:19:35.752Z,1.73
2019-06-10T18:22:03.147Z,1.43
2019-06-10T18:24:31.136Z,1.90
2019-06-10T18:27:02.228Z,1.73
2019-06-10T18:29:32.338Z,1.60
2019-06-10T18:31:59.460Z,1.70
2019-06-10T18:34:27.710Z,1.43
2019-06-10T18:36:59.015Z,1.70
2019-06-10T18:39:25.571Z,1.77
2019-06-10T18:41:53.479Z,1.50
2019-06-10T18:44:25.702Z,1.77
2019-06-10T18:46:51.093Z,1.80
2019-06-10T18:49:19.092Z,1.70
2019-06-10T18:51:47.091Z,1.77
2019-06-10T18:54:15.087Z,2.20
2019-06-10T18:56:43.202Z,1.60
2019-06-10T18:59:19.713Z,1.70
2019-06-10T19:01:42.393Z,1.50
2019-06-10T19:04:12.843Z,1.63
2019-06-10T19:06:40.232Z,1.30
2019-06-10T19:09:08.449Z,1.40
2019-06-10T19:11:37.219Z,1.73
2019-06-10T19:14:05.963Z,1.50
2019-06-10T19:16:35.474Z,1.70
2019-06-10T19:19:03.529Z,1.50
2019-06-10T19:21:32.390Z,1.60
2019-06-10T19:24:00.396Z,1.63
2019-06-10T19:26:28.340Z,1.50
2019-06-10T19:28:57.437Z,1.60
2019-06-10T19:31:25.811Z,1.80
2019-06-10T19:33:53.776Z,1.60
2019-06-10T19:36:23.151Z,1.80
2019-06-10T19:38:51.308Z,1.70
2019-06-10T19:41:19.196Z,1.80
2019-06-10T19:43:47.353Z,1.80
2019-06-10T19:46:15.584Z,1.70
2019-06-10T19:48:56.946Z,1.40
2019-06-10T19:51:14.462Z,1.70
2019-06-10T19:53:44.968Z,1.67
2019-06-10T19:56:13.030Z,1.70
2019-06-10T19:58:43.378Z,1.80
2019-06-10T20:01:10.675Z,1.57
2019-06-10T20:03:39.689Z,1.40
2019-06-10T20:06:07.843Z,2.00
2019-06-10T20:08:36.072Z,1.57
2019-06-10T20:11:04.007Z,1.73
2019-06-10T20:13:32.466Z,1.97
2019-06-10T20:16:02.792Z,1.93
2019-06-10T20:18:30.193Z,1.67
2019-06-10T20:20:58.747Z,1.73
2019-06-10T20:23:26.723Z,1.97
2019-06-10T20:25:54.632Z,1.77
2019-06-10T20:28:22.606Z,1.63
2019-06-10T20:30:52.789Z,1.60
2019-06-10T20:33:35.822Z,1.60
2019-06-10T20:36:06.287Z,1.70
2019-06-10T20:38:32.556Z,1.70
2019-06-10T20:41:02.666Z,1.60
2019-06-10T20:43:32.648Z,1.50
2019-06-10T20:46:02.805Z,1.57
2019-06-10T20:48:29.678Z,1.50
2019-06-10T20:50:57.579Z,1.60
2019-06-10T20:53:25.564Z,1.50
2019-06-10T20:55:57.411Z,1.60
2019-06-10T20:58:23.117Z,1.60
2019-06-10T21:00:53.876Z,1.67
2019-06-10T21:03:22.735Z,1.47
2019-06-10T21:05:53.285Z,1.50
2019-06-10T21:08:22.522Z,1.73
2019-06-10T21:10:50.131Z,1.63
2019-06-10T21:13:19.271Z,1.70
2019-06-10T21:15:50.323Z,1.80
2019-06-10T21:18:16.928Z,1.80
2019-06-10T21:20:49.237Z,1.57
2019-06-10T21:23:16.237Z,1.80
2019-06-10T21:25:47.795Z,1.80
2019-06-10T21:28:13.807Z,1.50
2019-06-10T21:30:48.467Z,1.53
2019-06-10T21:33:13.024Z,1.60
2019-06-10T21:35:44.078Z,1.63
2019-06-10T21:38:12.766Z,2.00
2019-06-10T21:40:42.486Z,1.90
2019-06-10T21:43:10.167Z,1.90
2019-06-10T21:45:38.037Z,1.60
2019-06-10T21:48:05.948Z,1.67
2019-06-10T21:50:33.831Z,1.80
2019-06-10T21:53:02.952Z,1.80
2019-06-10T21:55:33.155Z,1.80
2019-06-10T21:58:03.413Z,2.03
2019-06-10T22:00:51.930Z,1.90
2019-06-10T22:03:06.171Z,2.00
2019-06-10T22:05:34.148Z,1.70
2019-06-10T22:08:03.128Z,2.00
2019-06-10T22:10:33.411Z,2.03
2019-06-10T22:13:02.994Z,2.23
2019-06-10T22:15:33.185Z,2.10
2019-06-10T22:18:02.172Z,1.70
2019-06-10T22:20:32.267Z,1.80
2019-06-10T22:22:59.489Z,2.20
2019-06-10T22:25:27.367Z,2.10
2019-06-10T22:27:56.168Z,2.83
2019-06-10T22:30:24.333Z,2.20
2019-06-10T22:32:54.905Z,2.63
2019-06-10T22:35:23.031Z,2.77
2019-06-10T22:37:52.603Z,3.00
2019-06-10T22:40:22.414Z,2.20
2019-06-10T22:42:53.694Z,2.40
2019-06-10T22:45:20.218Z,2.20
2019-06-10T22:47:48.175Z,2.23
2019-06-10T22:50:16.179Z,2.40
2019-06-10T22:52:44.087Z,2.30
2019-06-10T22:55:12.944Z,2.27
2019-06-10T22:57:43.947Z,2.17
2019-06-10T23:00:12.951Z,2.77
2019-06-10T23:02:40.435Z,2.60
2019-06-10T23:05:08.545Z,2.63
2019-06-10T23:07:36.508Z,2.60
2019-06-10T23:10:04.897Z,2.40
2019-06-10T23:12:32.825Z,2.40
2019-06-10T23:15:02.873Z,2.60
2019-06-10T23:17:30.347Z,2.87
2019-06-10T23:19:59.641Z,2.17
2019-06-10T23:22:27.718Z,2.83
2019-06-10T23:24:55.763Z,2.23
2019-06-10T23:27:23.767Z,2.60
2019-06-10T23:29:53.989Z,2.57
2019-06-10T23:32:22.196Z,2.50
2019-06-10T23:34:53.601Z,2.77
2019-06-10T23:37:20.038Z,2.30
2019-06-10T23:39:47.924Z,2.63
2019-06-10T23:42:15.817Z,2.50
2019-06-10T23:44:43.793Z,2.50
2019-06-10T23:47:12.758Z,2.43
2019-06-10T23:49:41.055Z,2.93
2019-06-10T23:52:09.062Z,2.37
2019-06-10T23:54:37.469Z,2.43
2019-06-10T23:57:06.168Z,2.73
2019-06-10T23:59:34.636Z,3.10
